createdAt,value
2022-11-24T00:00:35.793Z,100.00
2022-11-24T00:03:02.372Z,100.00
2022-11-24T00:05:28.816Z,100.00
2022-11-24T00:07:55.217Z,100.00
2022-11-24T00:10:21.695Z,100.00
2022-11-24T00:12:48.069Z,100.00
2022-11-24T00:15:14.509Z,100.00
2022-11-24T00:17:40.961Z,100.00
2022-11-24T00:20:07.995Z,100.00
2022-11-24T00:22:34.384Z,100.00
2022-11-24T00:25:00.790Z,100.00
2022-11-24T00:27:27.196Z,100.00
2022-11-24T00:29:53.593Z,100.00
2022-11-24T00:32:20.009Z,100.00
2022-11-24T00:34:46.978Z,100.00
2022-11-24T00:37:13.397Z,100.00
2022-11-24T00:39:39.836Z,100.00
2022-11-24T00:42:06.246Z,100.00
2022-11-24T00:44:32.773Z,100.00
2022-11-24T00:46:59.416Z,100.00
2022-11-24T00:49:25.947Z,100.00
2022-11-24T00:51:52.420Z,100.00
2022-11-24T00:54:18.789Z,100.00
2022-11-24T00:56:45.881Z,100.00
2022-11-24T00:59:12.281Z,100.00
2022-11-24T01:01:38.755Z,100.00
2022-11-24T01:04:05.397Z,100.00
2022-11-24T01:06:32.108Z,100.00
2022-11-24T01:08:58.807Z,100.00
2022-11-24T01:11:34.385Z,100.00
2022-11-24T01:14:00.789Z,100.00
2022-11-24T01:16:33.111Z,100.00
2022-11-24T01:19:00.061Z,100.00
2022-11-24T01:21:26.880Z,100.00
2022-11-24T01:23:53.305Z,100.00
2022-11-24T01:26:22.303Z,100.00
2022-11-24T01:28:53.748Z,100.00
2022-11-24T01:31:20.217Z,100.00
2022-11-24T01:33:46.738Z,100.00
2022-11-24T01:36:13.187Z,100.00
2022-11-24T01:38:39.645Z,100.00
2022-11-24T01:41:15.043Z,100.00
2022-11-24T01:43:43.134Z,100.00
2022-11-24T01:46:33.947Z,100.00
2022-11-24T01:49:20.575Z,100.00
2022-11-24T01:52:05.835Z,100.00
2022-11-24T01:54:38.705Z,100.00
2022-11-24T01:57:13.005Z,100.00
2022-11-24T01:59:39.564Z,100.00
2022-11-24T02:02:06.594Z,100.00
2022-11-24T02:04:35.408Z,100.00
2022-11-24T02:07:04.578Z,100.00
2022-11-24T02:09:46.695Z,100.00
2022-11-24T02:12:13.113Z,100.00
2022-11-24T02:14:41.990Z,100.00
2022-11-24T02:17:08.814Z,100.00
2022-11-24T02:19:41.000Z,100.00
2022-11-24T02:22:15.265Z,100.00
2022-11-24T02:24:50.000Z,100.00
2022-11-24T02:27:16.699Z,100.00
2022-11-24T02:29:43.337Z,100.00
2022-11-24T02:32:11.339Z,100.00
2022-11-24T02:34:38.284Z,100.00
2022-11-24T02:37:04.719Z,100.00
2022-11-24T02:39:31.204Z,100.00
2022-11-24T02:42:03.609Z,100.00
2022-11-24T02:44:36.118Z,100.00
2022-11-24T02:47:08.835Z,100.00
2022-11-24T02:49:36.220Z,100.00
2022-11-24T02:52:03.065Z,100.00
2022-11-24T02:54:29.528Z,100.00
2022-11-24T02:56:56.265Z,100.00
2022-11-24T02:59:22.794Z,100.00
2022-11-24T03:01:49.764Z,100.00
2022-11-24T03:04:16.457Z,100.00
2022-11-24T03:06:42.924Z,100.00
2022-11-24T03:09:09.922Z,100.00
2022-11-24T03:11:36.926Z,100.00
2022-11-24T03:14:04.484Z,100.00
2022-11-24T03:16:31.539Z,100.00
2022-11-24T03:18:58.045Z,100.00
2022-11-24T03:21:24.588Z,100.00
2022-11-24T03:23:53.096Z,100.00
2022-11-24T03:26:21.550Z,100.00
2022-11-24T03:28:48.181Z,100.00
2022-11-24T03:31:14.799Z,100.00
2022-11-24T03:33:41.387Z,100.00
2022-11-24T03:36:08.635Z,100.00
2022-11-24T03:38:35.073Z,100.00
2022-11-24T03:41:01.598Z,100.00
2022-11-24T03:43:28.146Z,100.00
2022-11-24T03:45:54.730Z,100.00
2022-11-24T03:48:21.252Z,100.00
2022-11-24T03:50:56.186Z,100.00
2022-11-24T03:53:24.261Z,100.00
2022-11-24T03:55:50.713Z,100.00
2022-11-24T03:58:17.350Z,100.00
2022-11-24T04:00:43.859Z,100.00
2022-11-24T04:03:10.473Z,100.00
2022-11-24T04:05:37.528Z,100.00
2022-11-24T04:08:05.271Z,100.00
2022-11-24T04:10:33.341Z,100.00
2022-11-24T04:12:59.875Z,100.00
2022-11-24T04:15:26.314Z,100.00
2022-11-24T04:17:55.237Z,100.00
2022-11-24T04:20:22.348Z,100.00
2022-11-24T04:22:50.706Z,100.00
2022-11-24T04:25:17.518Z,100.00
2022-11-24T04:27:44.586Z,100.00
2022-11-24T04:30:11.216Z,100.00
2022-11-24T04:32:37.613Z,100.00
2022-11-24T04:35:04.671Z,100.00
2022-11-24T04:37:31.039Z,100.00
2022-11-24T04:39:57.516Z,100.00
2022-11-24T04:42:23.945Z,100.00
2022-11-24T04:44:50.383Z,100.00
2022-11-24T04:47:25.574Z,100.00
2022-11-24T04:49:53.132Z,100.00
2022-11-24T04:52:21.626Z,100.00
2022-11-24T04:54:49.488Z,100.00
2022-11-24T04:57:21.498Z,100.00
2022-11-24T04:59:49.328Z,100.00
2022-11-24T05:02:15.855Z,100.00
2022-11-24T05:04:42.526Z,100.00
2022-11-24T05:07:17.693Z,100.00
2022-11-24T05:09:58.880Z,100.00
2022-11-24T05:12:27.149Z,100.00
2022-11-24T05:14:53.562Z,100.00
2022-11-24T05:17:19.963Z,100.00
2022-11-24T05:19:46.434Z,100.00
2022-11-24T05:22:12.857Z,100.00
2022-11-24T05:24:39.284Z,100.00
2022-11-24T05:27:05.839Z,100.00
2022-11-24T05:29:32.241Z,100.00
2022-11-24T05:31:58.621Z,100.00
2022-11-24T05:34:25.059Z,100.00
2022-11-24T05:36:51.444Z,100.00
2022-11-24T05:39:17.826Z,100.00
2022-11-24T05:41:44.219Z,100.00
2022-11-24T05:44:10.825Z,100.00
2022-11-24T05:46:37.498Z,100.00
2022-11-24T05:49:04.097Z,100.00
2022-11-24T05:51:31.909Z,100.00
2022-11-24T05:53:58.379Z,100.00
2022-11-24T05:56:24.754Z,100.00
2022-11-24T05:58:51.222Z,100.00
2022-11-24T06:01:17.589Z,100.00
2022-11-24T06:03:43.954Z,100.00
2022-11-24T06:06:10.941Z,100.00
2022-11-24T06:08:37.609Z,100.00
2022-11-24T06:11:04.093Z,100.00
2022-11-24T06:13:30.529Z,100.00
2022-11-24T06:15:59.335Z,100.00
2022-11-24T06:18:25.812Z,100.00
2022-11-24T06:21:09.873Z,100.00
2022-11-24T06:23:39.243Z,100.00
2022-11-24T06:26:06.194Z,100.00
2022-11-24T06:28:32.637Z,100.00
2022-11-24T06:31:03.588Z,100.00
2022-11-24T06:33:34.381Z,100.00
2022-11-24T06:36:06.758Z,100.00
2022-11-24T06:38:35.736Z,100.00
2022-11-24T06:41:07.495Z,100.00
2022-11-24T06:43:35.278Z,100.00
2022-11-24T06:46:02.600Z,100.00
2022-11-24T06:48:29.381Z,100.00
2022-11-24T06:51:03.990Z,100.00
2022-11-24T06:53:34.896Z,100.00
2022-11-24T06:56:02.490Z,100.00
2022-11-24T06:58:28.933Z,100.00
2022-11-24T07:00:55.311Z,100.00
2022-11-24T07:03:21.873Z,100.00
2022-11-24T07:05:48.658Z,100.00
2022-11-24T07:08:17.908Z,100.00
2022-11-24T07:10:44.810Z,100.00
2022-11-24T07:13:11.221Z,100.00
2022-11-24T07:15:37.615Z,100.00
2022-11-24T07:18:04.477Z,100.00
2022-11-24T07:20:30.917Z,100.00
2022-11-24T07:22:58.037Z,100.00
2022-11-24T07:25:27.433Z,100.00
2022-11-24T07:28:00.541Z,100.00
2022-11-24T07:30:27.883Z,100.00
2022-11-24T07:33:02.218Z,100.00
2022-11-24T07:35:29.586Z,100.00
2022-11-24T07:37:57.530Z,100.00
2022-11-24T07:40:25.540Z,100.00
2022-11-24T07:42:51.914Z,100.00
2022-11-24T07:45:18.377Z,100.00
2022-11-24T07:47:44.747Z,100.00
2022-11-24T07:50:11.543Z,100.00
2022-11-24T07:52:38.121Z,100.00
2022-11-24T07:55:05.640Z,100.00
2022-11-24T07:57:31.965Z,100.00
2022-11-24T07:59:58.323Z,100.00
2022-11-24T08:02:24.696Z,100.00
2022-11-24T08:04:51.073Z,100.00
2022-11-24T08:07:17.502Z,100.00
2022-11-24T08:09:43.914Z,100.00
2022-11-24T08:12:10.325Z,100.00
2022-11-24T08:14:36.911Z,100.00
2022-11-24T08:17:03.430Z,100.00
2022-11-24T08:19:29.942Z,100.00
2022-11-24T08:21:56.308Z,100.00
2022-11-24T08:24:22.765Z,100.00
2022-11-24T08:26:49.126Z,100.00
2022-11-24T08:29:15.451Z,100.00
2022-11-24T08:31:41.887Z,100.00
2022-11-24T08:34:08.273Z,100.00
2022-11-24T08:36:34.601Z,100.00
2022-11-24T08:39:01.659Z,100.00
2022-11-24T08:41:29.188Z,100.00
2022-11-24T08:43:55.673Z,100.00
2022-11-24T08:46:22.756Z,100.00
2022-11-24T08:48:50.958Z,100.00
2022-11-24T08:51:20.177Z,100.00
2022-11-24T08:53:46.799Z,100.00
2022-11-24T08:56:13.837Z,100.00
2022-11-24T08:58:40.973Z,100.00
2022-11-24T09:01:15.442Z,100.00
2022-11-24T09:03:48.481Z,100.00
2022-11-24T09:06:18.063Z,100.00
2022-11-24T09:08:44.368Z,100.00
2022-11-24T09:11:13.449Z,100.00
2022-11-24T09:13:40.179Z,100.00
2022-11-24T09:16:10.075Z,100.00
2022-11-24T09:18:36.676Z,100.00
2022-11-24T09:21:14.571Z,100.00
2022-11-24T09:23:41.564Z,100.00
2022-11-24T09:26:16.074Z,100.00
2022-11-24T09:28:43.062Z,100.00
2022-11-24T09:31:12.428Z,100.00
2022-11-24T09:33:39.843Z,100.00
2022-11-24T09:36:06.897Z,100.00
2022-11-24T09:38:33.479Z,100.00
2022-11-24T09:41:21.027Z,100.00
2022-11-24T09:44:08.692Z,100.00
2022-11-24T09:46:56.485Z,99.08
2022-11-24T09:49:38.851Z,99.42
2022-11-24T09:52:12.011Z,99.38
2022-11-24T09:54:53.964Z,96.65
2022-11-24T09:57:25.533Z,97.55
2022-11-24T09:59:52.068Z,97.60
2022-11-24T10:02:18.455Z,96.29
2022-11-24T10:04:47.004Z,95.90
2022-11-24T10:07:27.066Z,97.11
2022-11-24T10:10:03.729Z,97.34
2022-11-24T10:12:46.912Z,96.34
2022-11-24T10:15:19.185Z,95.99
2022-11-24T10:17:59.422Z,95.30
2022-11-24T10:20:48.706Z,94.26
2022-11-24T10:23:39.711Z,94.03
2022-11-24T10:26:32.873Z,95.33
2022-11-24T10:28:59.221Z,93.36
2022-11-24T10:31:35.909Z,91.86
2022-11-24T10:34:17.703Z,91.98
2022-11-24T10:37:08.768Z,91.76
2022-11-24T10:40:03.524Z,90.03
2022-11-24T10:42:32.164Z,91.38
2022-11-24T10:45:01.038Z,90.50
2022-11-24T10:47:28.199Z,91.34
2022-11-24T10:49:57.774Z,89.20
2022-11-24T10:52:25.058Z,90.44
2022-11-24T10:54:59.716Z,90.83
2022-11-24T10:57:33.690Z,87.79
2022-11-24T11:00:01.768Z,86.62
2022-11-24T11:02:32.054Z,86.96
2022-11-24T11:04:58.689Z,87.20
2022-11-24T11:07:26.390Z,86.99
2022-11-24T11:10:22.777Z,87.79
2022-11-24T11:12:49.275Z,88.38
2022-11-24T11:15:31.226Z,88.09
2022-11-24T11:18:01.276Z,87.06
2022-11-24T11:20:31.181Z,87.94
2022-11-24T11:23:00.363Z,87.03
2022-11-24T11:25:32.795Z,86.90
2022-11-24T11:28:23.535Z,87.45
2022-11-24T11:31:18.418Z,86.71
2022-11-24T11:34:13.941Z,86.37
2022-11-24T11:36:50.641Z,86.55
2022-11-24T11:39:48.249Z,85.77
2022-11-24T11:42:53.858Z,85.54
2022-11-24T11:45:19.800Z,85.98
2022-11-24T11:48:01.201Z,84.77
2022-11-24T11:51:06.525Z,85.59
2022-11-24T11:53:31.111Z,84.70
2022-11-24T11:56:11.273Z,86.47
2022-11-24T11:59:00.378Z,85.99
2022-11-24T12:01:40.073Z,85.47
2022-11-24T12:04:39.239Z,86.23
2022-11-24T12:07:37.217Z,86.37
2022-11-24T12:10:15.435Z,86.85
2022-11-24T12:13:07.463Z,85.18
2022-11-24T12:15:42.879Z,85.44
2022-11-24T12:18:55.985Z,85.81
2022-11-24T12:21:26.656Z,86.37
2022-11-24T12:24:11.042Z,86.74
2022-11-24T12:26:49.129Z,87.58
2022-11-24T12:29:18.268Z,88.20
2022-11-24T12:32:21.925Z,87.47
2022-11-24T12:34:59.019Z,86.76
2022-11-24T12:37:40.747Z,85.18
2022-11-24T12:40:34.908Z,86.33
2022-11-24T12:43:22.462Z,86.50
2022-11-24T12:46:02.135Z,87.30
2022-11-24T12:48:34.597Z,87.53
2022-11-24T12:51:03.152Z,87.57
2022-11-24T12:53:33.476Z,87.20
2022-11-24T12:56:07.288Z,85.89
2022-11-24T12:58:42.012Z,85.43
2022-11-24T13:01:44.647Z,85.41
2022-11-24T13:04:17.250Z,86.96
2022-11-24T13:06:53.239Z,86.30
2022-11-24T13:09:20.078Z,85.73
2022-11-24T13:11:49.081Z,85.63
2022-11-24T13:14:31.478Z,86.05
2022-11-24T13:19:46.916Z,85.94
2022-11-24T13:22:18.256Z,87.43
2022-11-24T13:24:45.170Z,87.17
2022-11-24T13:27:14.243Z,87.57
2022-11-24T13:29:45.516Z,86.44
2022-11-24T13:32:11.837Z,86.36
2022-11-24T13:34:41.263Z,86.51
2022-11-24T13:37:28.899Z,86.54
2022-11-24T13:40:11.196Z,86.18
2022-11-24T13:42:56.074Z,85.54
2022-11-24T13:45:41.229Z,86.03
2022-11-24T13:48:20.458Z,85.75
2022-11-24T13:50:50.208Z,86.37
2022-11-24T13:53:38.474Z,87.62
2022-11-24T13:56:13.596Z,87.75
2022-11-24T13:58:42.889Z,88.06
2022-11-24T14:01:19.359Z,87.88
2022-11-24T14:04:32.864Z,87.82
2022-11-24T14:07:08.242Z,87.61
2022-11-24T14:09:43.729Z,87.37
2022-11-24T14:12:23.507Z,87.31
2022-11-24T14:14:52.299Z,87.82
2022-11-24T14:17:23.233Z,88.02
2022-11-24T14:19:55.441Z,88.03
2022-11-24T14:22:36.553Z,87.48
2022-11-24T14:25:03.833Z,88.04
2022-11-24T14:27:36.929Z,87.86
2022-11-24T14:30:09.454Z,87.87
2022-11-24T14:32:36.393Z,87.58
2022-11-24T14:35:20.497Z,87.82
2022-11-24T14:37:46.984Z,87.81
2022-11-24T14:40:38.918Z,88.18
2022-11-24T14:43:19.195Z,88.00
2022-11-24T14:45:55.557Z,88.28
2022-11-24T14:48:28.394Z,88.67
2022-11-24T14:51:05.988Z,89.04
2022-11-24T14:53:33.126Z,89.46
2022-11-24T14:56:30.324Z,90.00
2022-11-24T14:58:58.062Z,90.36
2022-11-24T15:01:27.276Z,90.91
2022-11-24T15:07:25.197Z,91.71
2022-11-24T15:09:52.476Z,91.75
2022-11-24T15:12:32.646Z,92.40
2022-11-24T15:15:15.432Z,92.44
2022-11-24T15:17:49.715Z,93.60
2022-11-24T15:20:24.744Z,93.62
2022-11-24T15:22:51.138Z,93.72
2022-11-24T15:25:33.961Z,94.27
2022-11-24T15:28:00.845Z,94.57
2022-11-24T15:30:27.732Z,95.15
2022-11-24T15:32:56.469Z,95.24
2022-11-24T15:35:25.341Z,95.25
2022-11-24T15:37:51.891Z,95.65
2022-11-24T15:40:19.232Z,95.96
2022-11-24T15:42:56.292Z,96.62
2022-11-24T15:45:25.854Z,96.41
2022-11-24T15:47:52.478Z,96.79
2022-11-24T15:50:19.591Z,97.15
2022-11-24T15:52:47.202Z,96.95
2022-11-24T15:55:21.698Z,96.92
2022-11-24T15:57:48.478Z,97.96
2022-11-24T16:00:20.446Z,97.51
2022-11-24T16:02:47.056Z,97.55
2022-11-24T16:05:14.636Z,97.61
2022-11-24T16:07:41.489Z,97.98
2022-11-24T16:10:21.622Z,99.02
2022-11-24T16:12:47.946Z,98.96
2022-11-24T16:15:14.334Z,99.75
2022-11-24T16:17:40.709Z,99.97
2022-11-24T16:20:07.512Z,100.00
2022-11-24T16:22:33.846Z,100.00
2022-11-24T16:25:00.189Z,100.00
2022-11-24T16:27:26.563Z,100.00
2022-11-24T16:29:52.866Z,100.00
2022-11-24T16:32:19.188Z,100.00
2022-11-24T16:34:45.536Z,100.00
2022-11-24T16:37:11.891Z,100.00
2022-11-24T16:39:38.257Z,100.00
2022-11-24T16:42:04.788Z,100.00
2022-11-24T16:44:31.249Z,100.00
2022-11-24T16:46:57.626Z,100.00
2022-11-24T16:49:23.994Z,100.00
2022-11-24T16:51:50.335Z,100.00
2022-11-24T16:54:16.686Z,100.00
2022-11-24T16:56:43.179Z,100.00
2022-11-24T16:59:09.643Z,100.00
2022-11-24T17:01:36.042Z,100.00
2022-11-24T17:04:02.515Z,100.00
2022-11-24T17:06:29.030Z,100.00
2022-11-24T17:08:55.779Z,100.00
2022-11-24T17:11:24.639Z,100.00
2022-11-24T17:13:51.732Z,100.00
2022-11-24T17:16:21.637Z,100.00
2022-11-24T17:18:48.677Z,100.00
2022-11-24T17:21:17.897Z,100.00
2022-11-24T17:23:44.757Z,100.00
2022-11-24T17:26:16.392Z,100.00
2022-11-24T17:28:43.376Z,100.00
2022-11-24T17:31:31.093Z,100.00
2022-11-24T17:33:59.141Z,100.00
2022-11-24T17:36:26.713Z,100.00
2022-11-24T17:38:53.400Z,100.00
2022-11-24T17:41:21.167Z,100.00
2022-11-24T17:43:55.149Z,100.00
2022-11-24T17:46:21.563Z,100.00
2022-11-24T17:48:48.030Z,100.00
2022-11-24T17:51:16.782Z,100.00
2022-11-24T17:53:45.104Z,100.00
2022-11-24T17:56:13.871Z,100.00
2022-11-24T17:58:43.123Z,100.00
2022-11-24T18:01:10.979Z,100.00
2022-11-24T18:03:39.191Z,100.00
2022-11-24T18:06:11.111Z,100.00
2022-11-24T18:08:39.592Z,100.00
2022-11-24T18:11:12.528Z,100.00
2022-11-24T18:16:26.130Z,100.00
2022-11-24T18:19:07.260Z,100.00
2022-11-24T18:21:34.558Z,100.00
2022-11-24T18:24:00.919Z,100.00
2022-11-24T18:26:27.306Z,100.00
2022-11-24T18:28:53.669Z,100.00
2022-11-24T18:31:20.033Z,100.00
2022-11-24T18:33:46.446Z,100.00
2022-11-24T18:36:16.707Z,100.00
2022-11-24T18:38:43.495Z,100.00
2022-11-24T18:41:12.083Z,100.00
2022-11-24T18:43:38.421Z,100.00
2022-11-24T18:46:11.297Z,100.00
2022-11-24T18:48:37.787Z,100.00
2022-11-24T18:51:04.713Z,100.00
2022-11-24T18:53:31.359Z,100.00
2022-11-24T18:56:03.287Z,100.00
2022-11-24T18:58:31.605Z,100.00
2022-11-24T19:01:14.815Z,100.00
2022-11-24T19:03:49.073Z,100.00
2022-11-24T19:06:24.664Z,100.00
2022-11-24T19:08:53.988Z,100.00
2022-11-24T19:11:23.108Z,100.00
2022-11-24T19:13:51.004Z,100.00
2022-11-24T19:16:19.661Z,100.00
2022-11-24T19:18:52.005Z,100.00
2022-11-24T19:21:20.350Z,100.00
2022-11-24T19:23:46.747Z,100.00
2022-11-24T19:26:13.064Z,100.00
2022-11-24T19:28:39.414Z,100.00
2022-11-24T19:31:08.550Z,100.00
2022-11-24T19:33:35.246Z,100.00
2022-11-24T19:36:08.145Z,100.00
2022-11-24T19:38:35.340Z,100.00
2022-11-24T19:41:07.436Z,100.00
2022-11-24T19:43:34.387Z,100.00
2022-11-24T19:46:02.289Z,100.00
2022-11-24T19:48:36.714Z,100.00
2022-11-24T19:51:05.969Z,100.00
2022-11-24T19:53:35.237Z,100.00
2022-11-24T19:56:04.790Z,100.00
2022-11-24T19:58:31.734Z,100.00
2022-11-24T20:01:09.087Z,100.00
2022-11-24T20:03:36.306Z,100.00
2022-11-24T20:06:03.918Z,100.00
2022-11-24T20:08:35.139Z,100.00
2022-11-24T20:11:09.985Z,100.00
2022-11-24T20:13:37.815Z,100.00
2022-11-24T20:16:04.887Z,100.00
2022-11-24T20:18:33.083Z,100.00
2022-11-24T20:21:08.636Z,100.00
2022-11-24T20:23:35.565Z,100.00
2022-11-24T20:26:04.171Z,100.00
2022-11-24T20:28:31.084Z,100.00
2022-11-24T20:31:01.495Z,100.00
2022-11-24T20:33:27.840Z,100.00
2022-11-24T20:35:54.228Z,100.00
2022-11-24T20:38:20.590Z,100.00
2022-11-24T20:40:46.937Z,100.00
2022-11-24T20:43:13.299Z,100.00
2022-11-24T20:45:39.708Z,100.00
2022-11-24T20:48:06.102Z,100.00
2022-11-24T20:50:35.485Z,100.00
2022-11-24T20:53:01.836Z,100.00
2022-11-24T20:55:28.156Z,100.00
2022-11-24T20:57:54.551Z,100.00
2022-11-24T21:00:21.005Z,100.00
2022-11-24T21:02:47.362Z,100.00
2022-11-24T21:05:13.835Z,100.00
2022-11-24T21:07:40.336Z,100.00
2022-11-24T21:10:07.323Z,100.00
2022-11-24T21:12:33.668Z,100.00
2022-11-24T21:15:00.012Z,100.00
2022-11-24T21:17:26.328Z,100.00
2022-11-24T21:19:55.739Z,100.00
2022-11-24T21:22:24.582Z,100.00
2022-11-24T21:24:50.901Z,100.00
2022-11-24T21:27:17.175Z,100.00
2022-11-24T21:29:43.542Z,100.00
2022-11-24T21:32:09.939Z,100.00
2022-11-24T21:34:36.594Z,100.00
2022-11-24T21:37:03.205Z,100.00
2022-11-24T21:39:29.624Z,100.00
2022-11-24T21:41:55.990Z,100.00
2022-11-24T21:44:22.304Z,100.00
2022-11-24T21:46:54.421Z,100.00
2022-11-24T21:49:22.231Z,100.00
2022-11-24T21:51:48.526Z,100.00
2022-11-24T21:54:14.852Z,100.00
2022-11-24T21:56:41.231Z,100.00
2022-11-24T21:59:07.516Z,100.00
2022-11-24T22:01:34.154Z,100.00
2022-11-24T22:04:00.627Z,100.00
2022-11-24T22:06:26.998Z,100.00
2022-11-24T22:08:55.057Z,100.00
2022-11-24T22:11:23.445Z,100.00
2022-11-24T22:13:50.855Z,100.00
2022-11-24T22:16:20.648Z,100.00
2022-11-24T22:18:47.513Z,100.00
2022-11-24T22:21:19.366Z,100.00
2022-11-24T22:23:45.752Z,100.00
2022-11-24T22:26:17.961Z,99.55
2022-11-24T22:28:45.067Z,99.48
2022-11-24T22:31:25.721Z,99.65
2022-11-24T22:33:54.098Z,99.59
2022-11-24T22:36:21.751Z,99.30
2022-11-24T22:38:53.269Z,99.64
2022-11-24T22:41:19.664Z,99.58
2022-11-24T22:43:46.682Z,98.92
2022-11-24T22:46:20.298Z,98.30
2022-11-24T22:48:48.083Z,98.55
2022-11-24T22:51:16.953Z,98.88
2022-11-24T22:53:51.951Z,98.83
2022-11-24T22:56:19.629Z,99.44
2022-11-24T22:58:46.444Z,99.41
2022-11-24T23:01:18.505Z,99.79
2022-11-24T23:03:45.497Z,99.34
2022-11-24T23:06:15.023Z,98.58
2022-11-24T23:08:42.258Z,99.27
2022-11-24T23:11:15.316Z,98.91
2022-11-24T23:13:42.274Z,98.90
2022-11-24T23:16:13.369Z,97.81
2022-11-24T23:18:40.747Z,97.69
2022-11-24T23:21:19.358Z,98.18
2022-11-24T23:23:47.150Z,98.14
2022-11-24T23:26:16.594Z,98.21
2022-11-24T23:28:43.001Z,98.14
2022-11-24T23:31:15.389Z,98.08
2022-11-24T23:33:41.916Z,98.17
2022-11-24T23:36:11.173Z,98.54
2022-11-24T23:38:38.061Z,98.39
2022-11-24T23:41:07.212Z,97.95
2022-11-24T23:43:34.931Z,98.22
2022-11-24T23:46:03.091Z,98.15
2022-11-24T23:48:29.583Z,98.39
2022-11-24T23:50:55.934Z,98.06
2022-11-24T23:53:22.664Z,97.83
2022-11-24T23:55:55.285Z,97.73
2022-11-24T23:58:22.925Z,97.57
